イスタンブル の空港の天気 - METARとTAF

アタテュルク国際空港(イスタンブル) ( LTBA / IST ) - トルコ イスタンブル
飛行場実況気象(Metar)
観測時間07/28 15:20 EET (07/28 12:20 UTC)
風向・風速南西 6m/s
視程10km以上
天気現象
少しの雲 雲底高度 760m
全天の4割程度の雲 雲底高度 1070m
全天の8割程度の雲 雲底高度 2740m
気温25℃
湿度65%
気圧1010hPa
METARLTBA 281220Z 23012KT 210V270 9999 FEW025TCU SCT035 BKN090 25/18 Q1010 NOSIG
過去の天気等 Google飛行場航空写真 Wunderground天気予報

過去48時間のMETAR

飛行場予報(TAF)
発表時間: 7/28 13:40 EET (7/28 10:40 UTC)
予報対象時間: 28日15時 EET ~ 29日21時 EET
風向・風速西南西 5m/s
視程10km以上
少しの雲 雲底高度 1,070m
全天の8割程度の雲 雲底高度 3,050m
28日16時 EET ~ 28日18時 EET に一時的に
風向・風速西 8m/s 瞬間風速 14m/s
天気現象弱いしゅう雨
少しの積乱雲 雲底高度 610m
全天の8割程度の雲 雲底高度 910m
28日19時 EET ~ 28日22時 EET に徐々に
視程10km以上
なし
TAF LTBA 281040Z 2812/2918 24009KT 9999 FEW035 BKN100
TEMPO 2813/2815 27015G27KT -SHRA FEW020CB BKN030
BECMG 2816/2819 CAVOK